Terminal Aerodrome Forecast
Issued by NWS

Home | Current Version | Previous Version | Text Only | Print | Product List | Glossary On
Versions: 1 2 3 4 5 6 7 8 9 10 11 12 13 14 15 16 17 18 19 20 21 22 23 24 25 26
000
FTAK31 PAFA 302128 AAA
TAFASC
TAF AMD
PASC 302128Z 3021/3118 24020KT 1 1/2SM -SN FEW026 OVC040
     FM302200 24022KT 1 1/2SM -SHSN BLSN BR BKN025 OVC035
     FM310100 25030KT 1/2SM -SN BLSN FG SCT004 OVC010=

USA.gov is the U.S. government's official web portal to all federal, state and local government web resources and services.